createdAt,value
2022-11-18T00:01:14.168Z,23.00
2022-11-18T00:03:41.839Z,10.33
2022-11-18T00:06:15.542Z,9.50
2022-11-18T00:08:43.033Z,10.00
2022-11-18T00:11:33.972Z,9.00
2022-11-18T00:14:19.426Z,8.00
2022-11-18T00:17:01.629Z,8.00
2022-11-18T00:19:34.221Z,7.50
2022-11-18T00:22:01.905Z,13.50
2022-11-18T00:24:29.197Z,12.00
2022-11-18T00:26:56.486Z,14.00
2022-11-18T00:29:24.211Z,8.75
2022-11-18T00:31:51.087Z,12.00
2022-11-18T00:34:19.503Z,14.00
2022-11-18T00:36:47.701Z,14.67
2022-11-18T00:39:17.791Z,17.50
2022-11-18T00:42:04.114Z,8.33
2022-11-18T00:44:31.268Z,9.00
2022-11-18T00:46:58.530Z,15.00
2022-11-18T00:49:25.443Z,13.33
2022-11-18T00:51:52.449Z,12.00
2022-11-18T00:54:19.631Z,9.25
2022-11-18T00:56:46.525Z,8.75
2022-11-18T00:59:13.461Z,11.00
2022-11-18T01:01:40.493Z,12.25
2022-11-18T01:04:07.445Z,12.00
2022-11-18T01:06:34.380Z,13.00
2022-11-18T01:09:01.303Z,9.50
2022-11-18T01:11:46.867Z,18.33
2022-11-18T01:14:13.803Z,9.67
2022-11-18T01:16:40.712Z,9.75
2022-11-18T01:19:07.854Z,10.67
2022-11-18T01:21:34.896Z,9.33
2022-11-18T01:24:01.846Z,9.00
2022-11-18T01:26:28.837Z,14.00
2022-11-18T01:28:57.881Z,9.33
2022-11-18T01:31:25.215Z,10.00
2022-11-18T01:33:52.535Z,12.50
2022-11-18T01:36:25.171Z,16.33
2022-11-18T01:38:53.360Z,13.33
2022-11-18T01:41:22.341Z,16.00
2022-11-18T01:43:54.530Z,16.00
2022-11-18T01:46:23.152Z,12.00
2022-11-18T01:48:55.827Z,9.00
2022-11-18T01:51:32.002Z,15.67
2022-11-18T01:54:06.434Z,13.00
2022-11-18T01:56:45.611Z,22.00
2022-11-18T01:59:17.209Z,16.67
2022-11-18T02:01:44.828Z,12.00
2022-11-18T02:04:12.639Z,20.33
2022-11-18T02:07:01.816Z,15.00
2022-11-18T02:09:53.366Z,12.33
2022-11-18T02:12:39.571Z,17.33
2022-11-18T02:16:10.254Z,16.33
2022-11-18T02:19:15.061Z,13.00
2022-11-18T02:22:11.905Z,14.33
2022-11-18T02:25:04.587Z,17.67
2022-11-18T02:28:09.893Z,17.00
2022-11-18T02:31:02.547Z,13.67
2022-11-18T02:33:43.537Z,17.67
2022-11-18T02:36:29.656Z,20.00
2022-11-18T02:39:03.507Z,12.00
2022-11-18T02:41:34.471Z,13.00
2022-11-18T02:44:22.358Z,15.67
2022-11-18T02:46:56.375Z,15.00
2022-11-18T02:49:39.234Z,12.33
2022-11-18T02:52:09.280Z,8.67
2022-11-18T02:54:40.265Z,18.33
2022-11-18T02:57:09.481Z,14.33
2022-11-18T02:59:36.426Z,16.67
2022-11-18T03:02:04.789Z,20.33
2022-11-18T03:04:34.691Z,12.67
2022-11-18T03:07:06.130Z,9.67
2022-11-18T03:09:39.235Z,12.33
2022-11-18T03:12:24.800Z,12.67
2022-11-18T03:15:09.343Z,9.00
2022-11-18T03:18:08.255Z,8.67
2022-11-18T03:20:56.025Z,15.67
2022-11-18T03:23:41.780Z,9.33
2022-11-18T03:26:25.241Z,12.00
2022-11-18T03:29:02.709Z,8.33
2022-11-18T03:31:40.012Z,12.00
2022-11-18T03:34:19.955Z,10.00
2022-11-18T03:36:52.228Z,16.00
2022-11-18T03:39:23.497Z,15.67
2022-11-18T03:41:57.424Z,11.67
2022-11-18T03:44:31.380Z,16.00
2022-11-18T03:47:25.576Z,13.00
2022-11-18T03:50:04.527Z,14.00
2022-11-18T03:52:35.988Z,13.67
2022-11-18T03:55:09.839Z,16.00
2022-11-18T03:57:49.835Z,13.67
2022-11-18T04:00:18.257Z,13.00
2022-11-18T04:02:48.091Z,8.67
2022-11-18T04:05:18.425Z,4.67
2022-11-18T04:07:55.489Z,6.67
2022-11-18T04:10:45.305Z,9.00
2022-11-18T04:13:14.802Z,8.00
2022-11-18T04:15:43.015Z,8.33
2022-11-18T04:18:10.748Z,4.00
2022-11-18T04:20:38.549Z,5.25
2022-11-18T04:23:07.183Z,8.00
2022-11-18T04:25:34.818Z,13.00
2022-11-18T04:28:02.075Z,4.50
2022-11-18T04:30:29.249Z,11.33
2022-11-18T04:32:56.172Z,7.00
2022-11-18T04:35:23.243Z,8.00
2022-11-18T04:37:50.168Z,5.00
2022-11-18T04:40:17.338Z,5.00
2022-11-18T04:42:44.422Z,2.50
2022-11-18T04:45:12.048Z,5.67
2022-11-18T04:47:39.249Z,8.33
2022-11-18T04:50:06.644Z,6.67
2022-11-18T04:52:33.620Z,5.33
2022-11-18T04:55:00.567Z,5.00
2022-11-18T04:57:27.583Z,15.00
2022-11-18T04:59:54.490Z,8.00
2022-11-18T05:02:21.466Z,18.33
2022-11-18T05:04:48.418Z,13.67
2022-11-18T05:07:16.558Z,13.00
2022-11-18T05:09:43.569Z,8.00
2022-11-18T05:12:33.434Z,8.67
2022-11-18T05:15:00.765Z,11.33
2022-11-18T05:17:29.034Z,8.33
2022-11-18T05:19:56.111Z,10.33
2022-11-18T05:22:23.090Z,17.33
2022-11-18T05:24:49.999Z,10.33
2022-11-18T05:27:17.122Z,6.67
2022-11-18T05:29:44.595Z,11.00
2022-11-18T05:32:11.975Z,8.00
2022-11-18T05:34:40.755Z,5.33
2022-11-18T05:37:08.009Z,11.33
2022-11-18T05:39:34.889Z,4.00
2022-11-18T05:42:20.580Z,5.00
2022-11-18T05:44:47.569Z,4.75
2022-11-18T05:47:14.570Z,2.00
2022-11-18T05:49:41.440Z,5.50
2022-11-18T05:52:08.424Z,9.00
2022-11-18T05:54:35.563Z,8.00
2022-11-18T05:57:02.552Z,13.67
2022-11-18T05:59:29.466Z,10.33
2022-11-18T06:02:02.348Z,11.67
2022-11-18T06:04:36.854Z,8.00
2022-11-18T06:07:12.247Z,10.33
2022-11-18T06:09:43.468Z,5.00
2022-11-18T06:12:16.770Z,5.00
2022-11-18T06:14:50.339Z,14.00
2022-11-18T06:17:24.884Z,15.67
2022-11-18T06:19:52.522Z,17.67
2022-11-18T06:22:19.881Z,20.00
2022-11-18T06:24:46.946Z,19.00
2022-11-18T06:27:14.839Z,13.67
2022-11-18T06:29:41.820Z,9.67
2022-11-18T06:32:08.911Z,5.67
2022-11-18T06:34:41.239Z,22.67
2022-11-18T06:37:23.313Z,16.00
2022-11-18T06:39:50.280Z,8.00
2022-11-18T06:42:37.106Z,8.33
2022-11-18T06:45:06.324Z,12.00
2022-11-18T06:47:33.289Z,10.67
2022-11-18T06:50:00.182Z,13.00
2022-11-18T06:52:27.865Z,8.00
2022-11-18T06:54:54.790Z,12.00
2022-11-18T06:57:21.847Z,19.33
2022-11-18T06:59:48.780Z,17.67
2022-11-18T07:02:15.723Z,14.33
2022-11-18T07:04:42.669Z,20.00
2022-11-18T07:07:09.662Z,19.33
2022-11-18T07:09:37.528Z,14.33
2022-11-18T07:12:04.963Z,16.00
2022-11-18T07:14:32.498Z,9.67
2022-11-18T07:16:59.419Z,10.33
2022-11-18T07:19:29.060Z,9.00
2022-11-18T07:22:00.354Z,15.33
2022-11-18T07:24:27.258Z,15.67
2022-11-18T07:26:54.676Z,15.67
2022-11-18T07:29:21.573Z,24.00
2022-11-18T07:31:48.493Z,13.33
2022-11-18T07:34:15.527Z,23.00
2022-11-18T07:36:42.515Z,15.67
2022-11-18T07:39:09.759Z,15.33
2022-11-18T07:41:36.714Z,13.67
2022-11-18T07:44:05.338Z,16.33
2022-11-18T07:46:35.235Z,15.00
2022-11-18T07:49:05.682Z,11.00
2022-11-18T07:51:35.565Z,12.33
2022-11-18T07:54:13.496Z,28.33
2022-11-18T07:56:40.657Z,17.00
2022-11-18T07:59:07.998Z,22.33
2022-11-18T08:01:35.544Z,13.67
2022-11-18T08:04:12.789Z,10.00
2022-11-18T08:06:40.499Z,9.67
2022-11-18T08:09:08.245Z,16.67
2022-11-18T08:11:35.421Z,20.00
2022-11-18T08:14:02.668Z,13.33
2022-11-18T08:16:30.010Z,12.00
2022-11-18T08:18:58.988Z,10.33
2022-11-18T08:21:25.904Z,9.00
2022-11-18T08:23:55.628Z,9.00
2022-11-18T08:26:23.467Z,12.33
2022-11-18T08:28:50.717Z,10.67
2022-11-18T08:31:26.317Z,15.00
2022-11-18T08:34:01.648Z,12.00
2022-11-18T08:36:30.846Z,14.67
2022-11-18T08:38:59.554Z,12.67
2022-11-18T08:41:36.804Z,12.33
2022-11-18T08:44:04.956Z,8.67
2022-11-18T08:46:32.636Z,10.33
2022-11-18T08:49:00.285Z,17.67
2022-11-18T08:51:28.044Z,23.33
2022-11-18T08:53:55.044Z,13.67
2022-11-18T08:56:23.574Z,16.00
2022-11-18T08:58:51.291Z,19.67
2022-11-18T09:01:18.518Z,12.00
2022-11-18T09:03:45.946Z,13.00
2022-11-18T09:06:16.167Z,11.00
2022-11-18T09:08:43.499Z,18.67
2022-11-18T09:11:11.621Z,17.67
2022-11-18T09:14:39.115Z,11.00
2022-11-18T09:16:28.306Z,17.00
2022-11-18T09:18:57.089Z,19.33
2022-11-18T09:21:25.838Z,15.00
2022-11-18T09:23:53.101Z,19.67
2022-11-18T09:26:23.928Z,22.00
2022-11-18T09:28:53.900Z,12.67
2022-11-18T09:31:21.049Z,11.50
2022-11-18T09:33:48.532Z,13.33
2022-11-18T09:36:21.176Z,15.67
2022-11-18T09:38:51.875Z,20.67
2022-11-18T09:41:38.566Z,18.33
2022-11-18T09:44:17.859Z,25.00
2022-11-18T09:47:23.128Z,19.33
2022-11-18T09:49:50.278Z,22.67
2022-11-18T09:52:24.982Z,22.00
2022-11-18T09:54:52.079Z,25.67
2022-11-18T09:57:24.608Z,17.33
2022-11-18T09:59:52.796Z,16.00
2022-11-18T10:02:45.659Z,17.67
2022-11-18T10:05:22.842Z,13.67
2022-11-18T10:08:14.113Z,10.33
2022-11-18T10:11:12.930Z,20.67
2022-11-18T10:13:58.623Z,19.67
2022-11-18T10:17:02.626Z,23.67
2022-11-18T10:19:36.434Z,22.00
2022-11-18T10:22:35.126Z,18.33
2022-11-18T10:25:02.067Z,19.00
2022-11-18T10:27:41.174Z,19.67
2022-11-18T10:30:19.781Z,15.33
2022-11-18T10:32:58.249Z,22.67
2022-11-18T10:35:31.070Z,21.00
2022-11-18T10:38:24.084Z,24.67
2022-11-18T10:40:52.352Z,19.67
2022-11-18T10:43:45.913Z,21.67
2022-11-18T10:46:29.595Z,19.00
2022-11-18T10:49:17.711Z,26.33
2022-11-18T10:52:10.504Z,21.00
2022-11-18T10:54:38.110Z,26.00
2022-11-18T10:57:23.895Z,28.33
2022-11-18T10:59:58.153Z,30.67
2022-11-18T11:02:31.204Z,24.67
2022-11-18T11:05:01.870Z,23.67
2022-11-18T11:07:37.164Z,41.00
2022-11-18T11:10:07.225Z,24.67
2022-11-18T11:12:37.721Z,26.33
2022-11-18T11:15:11.123Z,22.67
2022-11-18T11:17:43.322Z,29.00
2022-11-18T11:20:24.870Z,27.67
2022-11-18T11:22:51.822Z,24.00
2022-11-18T11:25:28.248Z,22.33
2022-11-18T11:31:11.839Z,30.00
2022-11-18T11:33:47.664Z,31.00
2022-11-18T11:36:35.868Z,33.67
2022-11-18T11:39:12.416Z,35.67
2022-11-18T11:41:44.980Z,29.33
2022-11-18T11:44:36.183Z,22.33
2022-11-18T11:47:36.724Z,29.33
2022-11-18T11:50:31.445Z,30.67
2022-11-18T11:53:21.250Z,30.00
2022-11-18T11:56:04.245Z,31.00
2022-11-18T11:58:52.124Z,15.00
2022-11-18T12:01:49.734Z,15.67
2022-11-18T12:04:25.550Z,21.33
2022-11-18T12:06:55.448Z,27.33
2022-11-18T12:09:29.279Z,21.00
2022-11-18T12:12:36.343Z,32.33
2022-11-18T12:15:26.394Z,16.00
2022-11-18T12:18:09.191Z,27.00
2022-11-18T12:20:48.163Z,37.33
2022-11-18T12:23:16.770Z,36.67
2022-11-18T12:25:53.239Z,25.67
2022-11-18T12:28:42.801Z,28.67
2022-11-18T12:31:18.907Z,35.00
2022-11-18T12:33:50.220Z,34.00
2022-11-18T12:36:40.257Z,29.33
2022-11-18T12:39:25.639Z,64.00
2022-11-18T12:42:16.441Z,31.67
2022-11-18T12:44:45.951Z,32.33
2022-11-18T12:47:35.352Z,54.67
2022-11-18T12:50:15.994Z,41.00
2022-11-18T12:52:42.829Z,33.00
2022-11-18T12:55:21.249Z,39.67
2022-11-18T12:57:48.144Z,37.00
2022-11-18T13:00:24.150Z,28.33
2022-11-18T13:02:55.331Z,27.00
2022-11-18T13:05:24.454Z,34.67
2022-11-18T13:08:09.849Z,29.33
2022-11-18T13:10:45.095Z,31.00
2022-11-18T13:13:24.352Z,27.00
2022-11-18T13:16:10.096Z,28.33
2022-11-18T13:18:48.916Z,30.67
2022-11-18T13:21:44.207Z,39.00
2022-11-18T13:24:16.868Z,42.67
2022-11-18T13:26:46.390Z,29.67
2022-11-18T13:29:22.580Z,30.00
2022-11-18T13:31:58.398Z,24.33
2022-11-18T13:34:28.237Z,20.33
2022-11-18T13:36:58.357Z,19.67
2022-11-18T13:39:29.683Z,27.67
2022-11-18T13:42:16.389Z,26.00
2022-11-18T13:44:47.445Z,31.33
2022-11-18T13:47:29.556Z,24.33
2022-11-18T13:50:13.166Z,40.33
2022-11-18T13:52:45.074Z,45.33
2022-11-18T13:55:40.258Z,41.33
2022-11-18T13:58:29.773Z,45.00
2022-11-18T14:01:00.913Z,39.00
2022-11-18T14:03:33.248Z,37.67
2022-11-18T14:06:00.890Z,26.67
2022-11-18T14:08:31.513Z,28.00
2022-11-18T14:10:59.212Z,23.33
2022-11-18T14:13:37.507Z,52.33
2022-11-18T14:16:24.298Z,46.67
2022-11-18T14:18:52.229Z,22.67
2022-11-18T14:21:30.366Z,33.67
2022-11-18T14:23:58.293Z,42.00
2022-11-18T14:26:32.323Z,44.00
2022-11-18T14:29:02.099Z,29.67
2022-11-18T14:31:31.905Z,32.33
2022-11-18T14:34:20.057Z,28.67
2022-11-18T14:36:48.182Z,32.67
2022-11-18T14:39:32.398Z,32.00
2022-11-18T14:41:59.728Z,29.00
2022-11-18T14:44:28.075Z,19.67
2022-11-18T14:47:03.097Z,31.33
2022-11-18T14:49:32.992Z,29.00
2022-11-18T14:52:02.862Z,34.33
2022-11-18T14:54:31.200Z,30.33
2022-11-18T14:57:01.840Z,34.33
2022-11-18T14:59:32.355Z,39.33
2022-11-18T15:01:59.830Z,21.00
2022-11-18T15:04:26.909Z,37.33
2022-11-18T15:06:54.091Z,25.67
2022-11-18T15:09:21.205Z,19.67
2022-11-18T15:11:48.127Z,20.00
2022-11-18T15:14:15.789Z,23.67
2022-11-18T15:16:42.992Z,21.00
2022-11-18T15:19:15.413Z,26.33
2022-11-18T15:21:43.769Z,28.33
2022-11-18T15:24:10.734Z,23.00
2022-11-18T15:26:43.442Z,23.33
2022-11-18T15:29:21.885Z,28.00
2022-11-18T15:31:49.420Z,17.00
2022-11-18T15:34:18.615Z,21.00
2022-11-18T15:36:46.251Z,13.67
2022-11-18T15:39:14.073Z,22.00
2022-11-18T15:41:43.135Z,24.00
2022-11-18T15:44:11.375Z,28.33
2022-11-18T15:46:39.414Z,32.00
2022-11-18T15:49:09.476Z,36.00
2022-11-18T15:51:37.325Z,27.33
2022-11-18T15:54:04.344Z,29.33
2022-11-18T15:56:32.082Z,32.67
2022-11-18T15:59:13.473Z,29.33
2022-11-18T16:01:45.860Z,23.00
2022-11-18T16:04:14.825Z,20.67
2022-11-18T16:06:44.750Z,30.00
2022-11-18T16:09:13.096Z,19.33
2022-11-18T16:11:58.819Z,27.33
2022-11-18T16:14:26.285Z,21.00
2022-11-18T16:16:55.479Z,27.00
2022-11-18T16:19:24.884Z,38.00
2022-11-18T16:21:57.278Z,35.67
2022-11-18T16:24:27.033Z,25.00
2022-11-18T16:26:54.813Z,24.67
2022-11-18T16:29:22.526Z,15.67
2022-11-18T16:31:54.887Z,30.33
2022-11-18T16:34:25.131Z,27.00
2022-11-18T16:36:55.694Z,27.67
2022-11-18T16:39:26.011Z,12.67
2022-11-18T16:42:02.122Z,14.00
2022-11-18T16:44:33.656Z,12.00
2022-11-18T16:47:00.606Z,22.67
2022-11-18T16:49:28.215Z,16.67
2022-11-18T16:51:57.141Z,23.33
2022-11-18T16:54:29.022Z,14.00
2022-11-18T16:56:58.775Z,16.33
2022-11-18T16:59:28.156Z,14.33
2022-11-18T17:01:57.489Z,16.67
2022-11-18T17:04:27.937Z,25.67
2022-11-18T17:06:56.818Z,36.33
2022-11-18T17:09:26.489Z,24.33
2022-11-18T17:11:56.007Z,15.67
2022-11-18T17:14:23.699Z,21.67
2022-11-18T17:16:51.774Z,20.67
2022-11-18T17:19:21.838Z,20.33
2022-11-18T17:21:50.300Z,32.67
2022-11-18T17:24:20.714Z,15.00
2022-11-18T17:26:48.780Z,22.00
2022-11-18T17:29:16.965Z,18.00
2022-11-18T17:31:44.433Z,18.67
2022-11-18T17:34:13.403Z,15.00
2022-11-18T17:36:40.993Z,24.00
2022-11-18T17:39:11.191Z,14.67
2022-11-18T17:41:56.911Z,20.67
2022-11-18T17:44:24.822Z,12.33
2022-11-18T17:46:51.871Z,22.00
2022-11-18T17:49:19.673Z,20.00
2022-11-18T17:51:46.652Z,16.67
2022-11-18T17:54:14.676Z,16.33
2022-11-18T17:56:43.445Z,15.00
2022-11-18T17:59:10.789Z,22.00
2022-11-18T18:01:37.828Z,18.67
2022-11-18T18:04:05.381Z,21.33
2022-11-18T18:06:32.555Z,15.00
2022-11-18T18:08:59.735Z,18.00
2022-11-18T18:11:27.938Z,12.00
2022-11-18T18:14:13.976Z,22.67
2022-11-18T18:16:45.954Z,22.67
2022-11-18T18:19:16.045Z,21.00
2022-11-18T18:21:43.152Z,20.00
2022-11-18T18:24:10.588Z,16.33
2022-11-18T18:26:38.249Z,15.67
2022-11-18T18:29:05.882Z,20.67
2022-11-18T18:31:37.434Z,11.33
2022-11-18T18:34:05.305Z,18.67
2022-11-18T18:36:32.866Z,29.33
2022-11-18T18:39:01.156Z,22.00
2022-11-18T18:41:28.440Z,15.00
2022-11-18T18:43:57.056Z,17.67
2022-11-18T18:46:36.805Z,18.33
2022-11-18T18:49:09.239Z,17.00
2022-11-18T18:51:39.768Z,19.00
2022-11-18T18:54:09.859Z,23.33
2022-11-18T18:56:36.857Z,24.00
2022-11-18T18:59:03.872Z,14.33
2022-11-18T19:01:31.491Z,14.67
2022-11-18T19:04:01.202Z,17.67
2022-11-18T19:09:18.350Z,16.67
2022-11-18T19:12:04.734Z,15.00
2022-11-18T19:14:35.638Z,17.67
2022-11-18T19:17:09.675Z,9.33
2022-11-18T19:19:57.244Z,13.33
2022-11-18T19:22:24.772Z,8.67
2022-11-18T19:24:52.576Z,10.00
2022-11-18T19:27:20.612Z,15.67
2022-11-18T19:29:47.610Z,11.67
2022-11-18T19:32:15.619Z,10.00
2022-11-18T19:34:44.345Z,20.33
2022-11-18T19:37:11.507Z,11.00
2022-11-18T19:39:38.826Z,14.33
2022-11-18T19:42:06.037Z,14.33
2022-11-18T19:44:32.971Z,8.33
2022-11-18T19:47:00.234Z,10.00
2022-11-18T19:49:27.173Z,18.67
2022-11-18T19:51:54.101Z,10.33
2022-11-18T19:54:21.019Z,10.00
2022-11-18T19:56:48.000Z,11.00
2022-11-18T19:59:14.933Z,8.00
2022-11-18T20:01:42.039Z,7.00
2022-11-18T20:04:09.144Z,11.00
2022-11-18T20:06:37.105Z,7.67
2022-11-18T20:09:07.993Z,8.67
2022-11-18T20:11:37.374Z,4.67
2022-11-18T20:14:04.771Z,4.00
2022-11-18T20:16:32.562Z,8.00
2022-11-18T20:19:09.335Z,7.33
2022-11-18T20:21:39.388Z,7.67
2022-11-18T20:24:08.181Z,8.00
2022-11-18T20:26:37.764Z,7.00
2022-11-18T20:29:08.801Z,8.67
2022-11-18T20:31:36.738Z,8.33
2022-11-18T20:34:04.784Z,11.00
2022-11-18T20:36:36.729Z,7.00
2022-11-18T20:39:11.907Z,8.33
2022-11-18T20:41:38.917Z,8.33
2022-11-18T20:44:05.989Z,12.00
2022-11-18T20:46:34.715Z,8.00
2022-11-18T20:49:02.072Z,7.00
2022-11-18T20:51:29.332Z,1.00
2022-11-18T20:53:57.852Z,4.00
2022-11-18T20:56:26.770Z,7.33
2022-11-18T20:58:54.119Z,4.00
2022-11-18T21:01:23.486Z,8.00
2022-11-18T21:03:55.878Z,4.33
2022-11-18T21:06:24.558Z,4.00
2022-11-18T21:08:59.756Z,5.67
2022-11-18T21:11:27.739Z,6.33
2022-11-18T21:14:16.009Z,8.33
2022-11-18T21:16:46.427Z,3.33
2022-11-18T21:19:14.263Z,8.33
2022-11-18T21:21:52.290Z,6.33
2022-11-18T21:24:22.092Z,5.00
2022-11-18T21:26:50.878Z,11.00
2022-11-18T21:29:18.617Z,14.33
2022-11-18T21:31:47.395Z,13.67
2022-11-18T21:34:16.220Z,4.33
2022-11-18T21:36:47.006Z,8.00
2022-11-18T21:39:17.780Z,2.00
2022-11-18T21:41:47.489Z,7.00
2022-11-18T21:44:16.650Z,8.00
2022-11-18T21:46:43.616Z,18.33
2022-11-18T21:49:10.776Z,19.67
2022-11-18T21:51:37.897Z,19.67
2022-11-18T21:54:05.151Z,14.00
2022-11-18T21:56:32.665Z,25.00
2022-11-18T21:59:01.995Z,19.67
2022-11-18T22:01:31.884Z,33.67
2022-11-18T22:04:01.077Z,27.00
2022-11-18T22:06:30.370Z,27.67
2022-11-18T22:08:57.871Z,24.00
2022-11-18T22:11:25.933Z,30.33
2022-11-18T22:13:53.610Z,21.67
2022-11-18T22:16:25.400Z,20.00
2022-11-18T22:19:01.175Z,23.00
2022-11-18T22:21:31.077Z,15.33
2022-11-18T22:24:02.265Z,21.00
2022-11-18T22:26:29.936Z,17.67
2022-11-18T22:28:58.609Z,18.00
2022-11-18T22:31:28.294Z,19.00
2022-11-18T22:33:56.588Z,19.33
2022-11-18T22:36:25.588Z,28.00
2022-11-18T22:38:53.815Z,34.00
2022-11-18T22:41:41.832Z,19.33
2022-11-18T22:44:10.236Z,30.00
2022-11-18T22:46:38.560Z,26.33
2022-11-18T22:49:08.129Z,32.33
2022-11-18T22:51:39.229Z,19.00
2022-11-18T22:56:55.021Z,31.00
2022-11-18T22:59:22.508Z,24.00
2022-11-18T23:01:51.947Z,26.00
2022-11-18T23:04:19.197Z,37.00
2022-11-18T23:06:46.497Z,26.33
2022-11-18T23:09:13.459Z,28.33
2022-11-18T23:11:59.132Z,29.00
2022-11-18T23:14:26.218Z,27.67
2022-11-18T23:16:53.736Z,25.33
2022-11-18T23:19:21.046Z,28.67
2022-11-18T23:21:48.908Z,26.67
2022-11-18T23:24:18.130Z,32.00
2022-11-18T23:26:45.887Z,31.33
2022-11-18T23:29:14.700Z,20.33
2022-11-18T23:31:44.054Z,20.67
2022-11-18T23:34:12.782Z,18.67
2022-11-18T23:36:40.525Z,17.67
2022-11-18T23:39:07.802Z,23.67
2022-11-18T23:41:34.847Z,13.00
2022-11-18T23:44:04.880Z,17.00
2022-11-18T23:46:33.071Z,10.00
2022-11-18T23:48:59.997Z,12.33
2022-11-18T23:51:27.007Z,7.67
2022-11-18T23:53:58.059Z,10.67
2022-11-18T23:56:27.669Z,10.00
2022-11-18T23:58:56.278Z,8.67
